Time,TemperatureF,DewpointF,PressureIn,WindDirection,WindDirectionDegrees,WindSpeedMPH,WindSpeedGustMPH,Humidity,HourlyPrecipIn,Conditions,Clouds,dailyrainin,SoftwareType,DateUTC
2013-08-23 00:06:00,70.3,66.9,29.89,NE,45,1.7,-999.0,89,-99.99,,,0.00,Acu-Link.com,2013-08-23 05:06:00,
2013-08-23 00:21:00,69.3,65.6,29.89,North,0,0.0,-999.0,88,-99.99,,,0.00,Acu-Link.com,2013-08-23 05:21:00,
2013-08-23 00:36:00,69.4,66.3,29.88,East,90,1.7,-999.0,90,-99.99,,,0.00,Acu-Link.com,2013-08-23 05:36:00,
2013-08-23 00:52:00,69.6,66.9,29.88,ESE,112,2.2,-999.0,91,-99.99,,,0.00,Acu-Link.com,2013-08-23 05:52:00,
2013-08-23 01:07:00,69.6,66.9,29.89,East,90,2.2,-999.0,91,-99.99,,,0.00,Acu-Link.com,2013-08-23 06:07:00,
2013-08-23 01:22:00,69.6,66.9,29.89,East,90,0.0,-999.0,91,-99.99,,,0.00,Acu-Link.com,2013-08-23 06:22:00,
2013-08-23 01:38:00,69.8,67.0,29.89,East,90,2.2,-999.0,91,-99.99,,,0.00,Acu-Link.com,2013-08-23 06:38:00,
2013-08-23 01:53:00,70.0,67.2,29.89,NE,45,0.0,-999.0,91,-99.99,,,0.00,Acu-Link.com,2013-08-23 06:53:00,
2013-08-23 02:08:00,70.0,67.2,29.89,East,90,2.2,-999.0,91,-99.99,,,0.00,Acu-Link.com,2013-08-23 07:08:00,
2013-08-23 02:24:00,70.2,67.4,29.89,East,90,2.2,-999.0,91,-99.99,,,0.00,Acu-Link.com,2013-08-23 07:24:00,
2013-08-23 02:39:00,70.2,67.4,29.89,East,90,2.7,-999.0,91,-99.99,,,0.00,Acu-Link.com,2013-08-23 07:39:00,
2013-08-23 02:54:00,70.2,67.1,29.89,ESE,112,3.2,-999.0,90,-99.99,,,0.00,Acu-Link.com,2013-08-23 07:54:00,
2013-08-23 03:09:00,70.0,66.9,29.88,East,90,2.7,-999.0,90,-99.99,,,0.00,Acu-Link.com,2013-08-23 08:09:00,
2013-08-23 03:24:00,70.0,66.9,29.89,ENE,67,1.7,-999.0,90,-99.99,,,0.00,Acu-Link.com,2013-08-23 08:24:00,
2013-08-23 03:39:00,69.8,66.7,29.89,ESE,112,2.7,-999.0,90,-99.99,,,0.00,Acu-Link.com,2013-08-23 08:39:00,
2013-08-23 03:55:00,69.4,66.3,29.88,ESE,112,1.7,-999.0,90,-99.99,,,0.00,Acu-Link.com,2013-08-23 08:55:00,
2013-08-23 04:10:00,69.1,66.0,29.88,ESE,112,0.0,-999.0,90,-99.99,,,0.00,Acu-Link.com,2013-08-23 09:10:00,
2013-08-23 04:25:00,69.4,66.7,29.89,SE,135,2.2,-999.0,91,-99.99,,,0.00,Acu-Link.com,2013-08-23 09:25:00,
2013-08-23 04:40:00,69.1,66.4,29.88,ESE,112,3.2,-999.0,91,-99.99,,,0.00,Acu-Link.com,2013-08-23 09:40:00,
2013-08-23 04:55:00,68.7,66.0,29.88,ESE,112,1.7,-999.0,91,-99.99,,,0.00,Acu-Link.com,2013-08-23 09:55:00,
2013-08-23 05:10:00,68.5,65.8,29.88,ESE,112,0.0,-999.0,91,-99.99,,,0.00,Acu-Link.com,2013-08-23 10:10:00,
2013-08-23 05:25:00,68.5,66.1,29.88,ESE,112,4.2,-999.0,92,-99.99,,,0.00,Acu-Link.com,2013-08-23 10:25:00,
2013-08-23 05:41:00,68.5,66.1,29.87,ESE,112,3.7,-999.0,92,-99.99,,,0.00,Acu-Link.com,2013-08-23 10:41:00,
2013-08-23 05:56:00,68.4,66.3,29.88,ESE,112,4.2,-999.0,93,-99.99,,,0.00,Acu-Link.com,2013-08-23 10:56:00,
2013-08-23 06:11:00,68.4,66.3,29.87,ESE,112,4.7,-999.0,93,-99.99,,,0.00,Acu-Link.com,2013-08-23 11:11:00,
2013-08-23 06:26:00,68.4,66.3,29.88,NE,45,2.2,-999.0,93,-99.99,,,0.00,Acu-Link.com,2013-08-23 11:26:00,
2013-08-23 06:42:00,68.0,65.9,29.89,South,180,0.0,-999.0,93,-99.99,,,0.00,Acu-Link.com,2013-08-23 11:42:00,
2013-08-23 06:57:00,68.0,65.9,29.89,ESE,112,4.2,-999.0,93,-99.99,,,0.00,Acu-Link.com,2013-08-23 11:57:00,
2013-08-23 07:12:00,68.2,66.1,29.88,SSE,157,5.3,-999.0,93,-99.99,,,0.00,Acu-Link.com,2013-08-23 12:12:00,
2013-08-23 07:27:00,69.1,67.0,29.89,ESE,112,4.2,-999.0,93,-99.99,,,0.00,Acu-Link.com,2013-08-23 12:27:00,
2013-08-23 07:42:00,69.1,67.0,29.89,ESE,112,4.7,-999.0,93,-99.99,,,0.00,Acu-Link.com,2013-08-23 12:42:00,
2013-08-23 07:57:00,69.3,67.2,29.89,ESE,112,5.3,-999.0,93,-99.99,,,0.00,Acu-Link.com,2013-08-23 12:57:00,
2013-08-23 08:13:00,69.6,67.5,29.90,ESE,112,3.7,-999.0,93,-99.99,,,0.00,Acu-Link.com,2013-08-23 13:13:00,
2013-08-23 08:28:00,70.2,67.8,29.90,SE,135,2.7,-999.0,92,-99.99,,,0.00,Acu-Link.com,2013-08-23 13:28:00,
2013-08-23 08:43:00,70.7,67.9,29.90,ESE,112,2.7,-999.0,91,-99.99,,,0.00,Acu-Link.com,2013-08-23 13:43:00,
2013-08-23 08:58:00,71.6,68.5,29.90,ESE,112,2.7,-999.0,90,-99.99,,,0.00,Acu-Link.com,2013-08-23 13:58:00,
2013-08-23 09:14:00,72.3,68.5,29.91,SE,135,3.2,-999.0,88,-99.99,,,0.00,Acu-Link.com,2013-08-23 14:14:00,
2013-08-23 09:29:00,73.6,69.5,29.90,ESE,112,3.7,-999.0,87,-99.99,,,0.00,Acu-Link.com,2013-08-23 14:29:00,
2013-08-23 09:44:00,74.7,69.9,29.90,ESE,112,3.7,-999.0,85,-99.99,,,0.00,Acu-Link.com,2013-08-23 14:44:00,
2013-08-23 09:59:00,77.4,71.1,29.89,SSE,157,4.2,-999.0,81,-99.99,,,0.00,Acu-Link.com,2013-08-23 14:59:00,
2013-08-23 10:15:00,79.0,71.5,29.89,SSE,157,4.2,-999.0,78,-99.99,,,0.00,Acu-Link.com,2013-08-23 15:15:00,
2013-08-23 10:30:00,79.9,70.9,29.89,WSW,247,6.8,-999.0,74,-99.99,,,0.00,Acu-Link.com,2013-08-23 15:30:00,
2013-08-23 10:45:00,82.6,71.8,29.89,South,180,6.3,-999.0,70,-99.99,,,0.00,Acu-Link.com,2013-08-23 15:45:00,
2013-08-23 11:00:00,83.7,72.0,29.89,South,180,5.8,-999.0,68,-99.99,,,0.00,Acu-Link.com,2013-08-23 16:00:00,
2013-08-23 11:15:00,84.2,70.7,29.89,SSE,157,8.9,-999.0,64,-99.99,,,0.00,Acu-Link.com,2013-08-23 16:15:00,
2013-08-23 11:30:00,85.3,72.2,29.88,East,90,4.2,-999.0,65,-99.99,,,0.00,Acu-Link.com,2013-08-23 16:30:00,
2013-08-23 11:45:00,86.5,71.9,29.88,East,90,8.3,-999.0,62,-99.99,,,0.00,Acu-Link.com,2013-08-23 16:45:00,
2013-08-23 12:00:00,87.3,72.2,29.87,SSE,157,6.8,-999.0,61,-99.99,,,0.00,Acu-Link.com,2013-08-23 17:00:00,
2013-08-23 12:15:00,87.3,71.7,29.87,ESE,112,6.8,-999.0,60,-99.99,,,0.00,Acu-Link.com,2013-08-23 17:15:00,
2013-08-23 12:31:00,87.3,71.2,29.86,South,180,6.8,-999.0,59,-99.99,,,0.00,Acu-Link.com,2013-08-23 17:31:00,
2013-08-23 12:46:00,88.9,72.2,29.86,SE,135,10.9,-999.0,58,-99.99,,,0.00,Acu-Link.com,2013-08-23 17:46:00,
2013-08-23 13:01:00,88.5,70.8,29.85,SE,135,8.3,-999.0,56,-99.99,,,0.00,Acu-Link.com,2013-08-23 18:01:00,
2013-08-23 13:16:00,88.7,71.0,29.85,ESE,112,9.9,-999.0,56,-99.99,,,0.00,Acu-Link.com,2013-08-23 18:16:00,
2013-08-23 13:31:00,89.1,70.8,29.85,SSE,157,10.4,-999.0,55,-99.99,,,0.00,Acu-Link.com,2013-08-23 18:31:00,
2013-08-23 13:46:00,89.2,70.9,29.85,East,90,6.8,-999.0,55,-99.99,,,0.00,Acu-Link.com,2013-08-23 18:46:00,
2013-08-23 14:01:00,89.1,71.3,29.85,SSE,157,7.8,-999.0,56,-99.99,,,0.00,Acu-Link.com,2013-08-23 19:01:00,
2013-08-23 14:16:00,88.5,71.3,29.84,SSE,157,8.9,-999.0,57,-99.99,,,0.00,Acu-Link.com,2013-08-23 19:16:00,
2013-08-23 14:32:00,89.1,70.8,29.83,ESE,112,12.5,-999.0,55,-99.99,,,0.00,Acu-Link.com,2013-08-23 19:32:00,
2013-08-23 14:47:00,89.2,69.8,29.84,ESE,112,8.9,-999.0,53,-99.99,,,0.00,Acu-Link.com,2013-08-23 19:47:00,
2013-08-23 15:02:00,89.8,69.8,29.83,SE,135,7.8,-999.0,52,-99.99,,,0.00,Acu-Link.com,2013-08-23 20:02:00,
2013-08-23 15:17:00,89.1,69.1,29.84,SSE,157,7.8,-999.0,52,-99.99,,,0.00,Acu-Link.com,2013-08-23 20:17:00,
2013-08-23 15:32:00,89.8,69.2,29.83,SE,135,9.4,-999.0,51,-99.99,,,0.00,Acu-Link.com,2013-08-23 20:32:00,
2013-08-23 15:47:00,90.0,70.0,29.83,SSE,157,7.3,-999.0,52,-99.99,,,0.00,Acu-Link.com,2013-08-23 20:47:00,
2013-08-23 16:02:00,90.3,69.7,29.83,ESE,112,12.5,-999.0,51,-99.99,,,0.00,Acu-Link.com,2013-08-23 21:02:00,
2013-08-23 16:17:00,89.2,70.3,29.83,North,0,8.9,-999.0,54,-99.99,,,0.00,Acu-Link.com,2013-08-23 21:17:00,
2013-08-23 16:32:00,87.6,69.4,29.83,ESE,112,9.4,-999.0,55,-99.99,,,0.00,Acu-Link.com,2013-08-23 21:32:00,
2013-08-23 16:48:00,87.4,69.7,29.83,ESE,112,8.9,-999.0,56,-99.99,,,0.00,Acu-Link.com,2013-08-23 21:48:00,
2013-08-23 17:03:00,86.7,69.6,29.82,SSE,157,6.3,-999.0,57,-99.99,,,0.00,Acu-Link.com,2013-08-23 22:03:00,
2013-08-23 17:18:00,87.6,70.5,29.82,SSE,157,8.9,-999.0,57,-99.99,,,0.00,Acu-Link.com,2013-08-23 22:18:00,
2013-08-23 17:33:00,88.3,70.6,29.82,SSE,157,9.9,-999.0,56,-99.99,,,0.00,Acu-Link.com,2013-08-23 22:33:00,
2013-08-23 17:48:00,87.1,68.9,29.82,East,90,8.9,-999.0,55,-99.99,,,0.00,Acu-Link.com,2013-08-23 22:48:00,
2013-08-23 18:05:00,87.3,69.7,29.81,ESE,112,6.8,-999.0,56,-99.99,,,0.00,Acu-Link.com,2013-08-23 23:05:00,
2013-08-23 18:20:00,87.1,69.5,29.82,SSE,157,6.3,-999.0,56,-99.99,,,0.00,Acu-Link.com,2013-08-23 23:20:00,
2013-08-23 18:35:00,86.5,69.4,29.81,SSE,157,5.8,-999.0,57,-99.99,,,0.00,Acu-Link.com,2013-08-23 23:35:00,
2013-08-23 18:50:00,87.1,69.5,29.81,SSE,157,6.3,-999.0,56,-99.99,,,0.00,Acu-Link.com,2013-08-23 23:50:00,
2013-08-23 19:06:00,86.0,69.0,29.80,ESE,112,5.3,-999.0,57,-99.99,,,0.00,Acu-Link.com,2013-08-24 00:06:00,
2013-08-23 19:21:00,85.1,69.1,29.80,SE,135,4.7,-999.0,59,-99.99,,,0.00,Acu-Link.com,2013-08-24 00:21:00,
2013-08-23 19:36:00,83.8,68.4,29.80,South,180,3.2,-999.0,60,-99.99,,,0.00,Acu-Link.com,2013-08-24 00:36:00,
2013-08-23 19:51:00,82.4,68.0,29.80,SSE,157,4.2,-999.0,62,-99.99,,,0.00,Acu-Link.com,2013-08-24 00:51:00,
2013-08-23 20:06:00,80.1,67.7,29.79,ESE,112,4.7,-999.0,66,-99.99,,,0.00,Acu-Link.com,2013-08-24 01:06:00,
2013-08-23 20:22:00,78.4,67.4,29.80,ESE,112,4.2,-999.0,69,-99.99,,,0.00,Acu-Link.com,2013-08-24 01:22:00,
2013-08-23 20:37:00,77.5,67.3,29.80,South,180,3.2,-999.0,71,-99.99,,,0.00,Acu-Link.com,2013-08-24 01:37:00,
2013-08-23 20:52:00,76.6,67.3,29.80,ESE,112,2.7,-999.0,73,-99.99,,,0.00,Acu-Link.com,2013-08-24 01:52:00,
2013-08-23 21:07:00,75.4,67.3,29.81,SSE,157,2.2,-999.0,76,-99.99,,,0.00,Acu-Link.com,2013-08-24 02:07:00,
2013-08-23 21:22:00,74.8,67.5,29.82,SE,135,3.7,-999.0,78,-99.99,,,0.00,Acu-Link.com,2013-08-24 02:22:00,
2013-08-23 22:50:00,73.0,67.5,29.83,SSE,157,3.2,-999.0,83,-99.99,,,0.00,Acu-Link.com,2013-08-24 03:50:00,
2013-08-23 23:06:00,73.2,67.7,29.83,SSE,157,2.7,-999.0,83,-99.99,,,0.00,Acu-Link.com,2013-08-24 04:06:00,
2013-08-23 23:21:00,73.2,67.7,29.83,SSE,157,5.3,-999.0,83,-99.99,,,0.00,Acu-Link.com,2013-08-24 04:21:00,
2013-08-23 23:36:00,73.2,67.7,29.83,South,180,4.7,-999.0,83,-99.99,,,0.00,Acu-Link.com,2013-08-24 04:36:00,
2013-08-23 23:51:00,73.0,67.5,29.83,SE,135,4.2,-999.0,83,-99.99,,,0.00,Acu-Link.com,2013-08-24 04:51:00,